createdAt,value
2019-02-05T00:00:18.000Z,101142
2019-02-05T00:02:03.000Z,101142
2019-02-05T00:03:18.000Z,101140
2019-02-05T00:04:18.000Z,101133
2019-02-05T00:06:18.000Z,101124
2019-02-05T00:08:18.000Z,101134
2019-02-05T00:09:18.000Z,101131
2019-02-05T00:10:48.000Z,101122
2019-02-05T00:12:18.000Z,101124
2019-02-05T00:14:03.000Z,101121
2019-02-05T00:15:18.000Z,101126
2019-02-05T00:17:18.000Z,101129
2019-02-05T00:18:18.000Z,101131
2019-02-05T00:20:03.000Z,101141
2019-02-05T00:21:03.000Z,101137
2019-02-05T00:23:18.000Z,101141
2019-02-05T00:24:18.000Z,101134
2019-02-05T00:26:03.000Z,101141
2019-02-05T00:28:18.000Z,101143
2019-02-05T00:30:18.000Z,101144
2019-02-05T00:32:18.000Z,101146
2019-02-05T00:34:18.000Z,101153
2019-02-05T00:36:18.000Z,101160
2019-02-05T00:37:18.000Z,101163
2019-02-05T00:39:18.000Z,101166
2019-02-05T00:40:18.000Z,101161
2019-02-05T00:42:18.000Z,101162
2019-02-05T00:44:03.000Z,101162
2019-02-05T00:46:18.000Z,101174
2019-02-05T00:48:18.000Z,101171
2019-02-05T00:49:18.000Z,101172
2019-02-05T00:51:18.000Z,101167
2019-02-05T00:53:18.000Z,101164
2019-02-05T00:55:18.000Z,101165
2019-02-05T00:57:18.000Z,101170
2019-02-05T00:59:18.000Z,101160
2019-02-05T01:01:18.000Z,101164
2019-02-05T01:03:18.000Z,101160
2019-02-05T01:05:18.000Z,101164
2019-02-05T01:07:18.000Z,101165
2019-02-05T01:08:18.000Z,101163
2019-02-05T01:09:18.000Z,101161
2019-02-05T01:11:18.000Z,101164
2019-02-05T01:13:18.000Z,101153
2019-02-05T01:15:03.000Z,101154
2019-02-05T01:16:18.000Z,101156
2019-02-05T01:18:18.000Z,101163
2019-02-05T01:20:18.000Z,101170
2019-02-05T01:22:18.000Z,101170
2019-02-05T01:24:03.000Z,101173
2019-02-05T01:25:18.000Z,101170
2019-02-05T01:27:18.000Z,101170
2019-02-05T01:28:49.000Z,101169
2019-02-05T01:30:18.000Z,101165
2019-02-05T01:32:03.000Z,101165
2019-02-05T01:33:18.000Z,101168
2019-02-05T01:35:18.000Z,101167
2019-02-05T01:36:48.000Z,101169
2019-02-05T01:38:18.000Z,101173
2019-02-05T01:40:03.000Z,101164
2019-02-05T01:41:18.000Z,101168
2019-02-05T01:43:18.000Z,101166
2019-02-05T01:44:48.000Z,101168
2019-02-05T01:46:03.000Z,101164
2019-02-05T01:47:03.000Z,101158
2019-02-05T01:49:18.000Z,101172
2019-02-05T01:51:18.000Z,101172
2019-02-05T01:53:03.000Z,101176
2019-02-05T01:54:03.000Z,101179
2019-02-05T01:55:18.000Z,101179
2019-02-05T01:57:18.000Z,101178
2019-02-05T01:59:18.000Z,101176
2019-02-05T02:01:18.000Z,101179
2019-02-05T02:03:18.000Z,101173
2019-02-05T02:04:18.000Z,101177
2019-02-05T02:06:03.000Z,101178
2019-02-05T02:07:18.000Z,101181
2019-02-05T02:09:18.000Z,101180
2019-02-05T02:11:18.000Z,101183
2019-02-05T02:13:18.000Z,101177
2019-02-05T02:14:18.000Z,101180
2019-02-05T02:15:49.000Z,101174
2019-02-05T02:17:03.000Z,101178
2019-02-05T02:18:18.000Z,101182
2019-02-05T02:20:18.000Z,101177
2019-02-05T02:22:18.000Z,101176
2019-02-05T02:24:18.000Z,101170
2019-02-05T02:26:03.000Z,101165
2019-02-05T02:28:18.000Z,101174
2019-02-05T02:29:18.000Z,101175
2019-02-05T02:30:49.000Z,101166
2019-02-05T02:32:18.000Z,101168
2019-02-05T02:34:03.000Z,101172
2019-02-05T02:35:18.000Z,101162
2019-02-05T02:37:18.000Z,101161
2019-02-05T02:38:48.000Z,101165
2019-02-05T02:40:18.000Z,101170
2019-02-05T02:41:18.000Z,101165
2019-02-05T02:42:18.000Z,101161
2019-02-05T02:44:18.000Z,101164
2019-02-05T02:46:18.000Z,101166
2019-02-05T02:48:03.000Z,101173
2019-02-05T02:50:18.000Z,101176
2019-02-05T02:52:18.000Z,101180
2019-02-05T02:53:48.000Z,101180
2019-02-05T02:55:18.000Z,101178
2019-02-05T02:57:03.000Z,101185
2019-02-05T02:58:18.000Z,101191
2019-02-05T03:00:18.000Z,101192
2019-02-05T03:01:48.000Z,101192
2019-02-05T03:03:18.000Z,101193
2019-02-05T03:04:18.000Z,101199
2019-02-05T03:05:18.000Z,101197
2019-02-05T03:07:18.000Z,101198
2019-02-05T03:08:18.000Z,101199
2019-02-05T03:10:18.000Z,101193
2019-02-05T03:12:03.000Z,101189
2019-02-05T03:13:18.000Z,101190
2019-02-05T03:15:18.000Z,101194
2019-02-05T03:17:18.000Z,101195
2019-02-05T03:19:18.000Z,101193
2019-02-05T03:21:03.000Z,101194
2019-02-05T03:22:18.000Z,101189
2019-02-05T03:23:48.000Z,101187
2019-02-05T03:25:03.000Z,101190
2019-02-05T03:27:18.000Z,101192
2019-02-05T03:29:18.000Z,101190
2019-02-05T03:30:48.000Z,101191
2019-02-05T03:32:03.000Z,101190
2019-02-05T03:34:18.000Z,101195
2019-02-05T03:36:18.000Z,101197
2019-02-05T03:37:18.000Z,101192
2019-02-05T03:39:18.000Z,101188
2019-02-05T03:41:03.000Z,101190
2019-02-05T03:42:18.000Z,101189
2019-02-05T03:44:03.000Z,101192
2019-02-05T03:46:18.000Z,101190
2019-02-05T03:48:03.000Z,101180
2019-02-05T03:49:03.000Z,101185
2019-02-05T03:50:18.000Z,101182
2019-02-05T03:51:18.000Z,101185
2019-02-05T03:52:49.000Z,101184
2019-02-05T03:54:03.000Z,101184
2019-02-05T03:55:18.000Z,101184
2019-02-05T03:56:18.000Z,101190
2019-02-05T03:58:18.000Z,101190
2019-02-05T03:59:18.000Z,101193
2019-02-05T04:01:03.000Z,101190
2019-02-05T04:02:04.000Z,101193
2019-02-05T04:04:18.000Z,101195
2019-02-05T04:06:18.000Z,101197
2019-02-05T04:07:48.000Z,101195
2019-02-05T04:09:18.000Z,101200
2019-02-05T04:11:03.000Z,101199
2019-02-05T04:12:18.000Z,101201
2019-02-05T04:13:18.000Z,101201
2019-02-05T04:15:18.000Z,101197
2019-02-05T04:17:03.000Z,101196
2019-02-05T04:19:18.000Z,101203
2019-02-05T04:21:03.000Z,101211
2019-02-05T04:22:19.000Z,101203
2019-02-05T04:24:18.000Z,101207
2019-02-05T04:25:48.000Z,101209
2019-02-05T04:27:18.000Z,101209
2019-02-05T04:29:18.000Z,101207
2019-02-05T04:30:49.000Z,101201
2019-02-05T04:32:18.000Z,101195
2019-02-05T04:34:03.000Z,101198
2019-02-05T04:35:03.000Z,101206
2019-02-05T04:36:18.000Z,101198
2019-02-05T04:37:18.000Z,101198
2019-02-05T04:38:19.000Z,101200
2019-02-05T04:40:18.000Z,101199
2019-02-05T04:41:18.000Z,101199
2019-02-05T04:42:18.000Z,101203
2019-02-05T04:44:03.000Z,101205
2019-02-05T04:45:19.000Z,101198
2019-02-05T04:47:18.000Z,101193
2019-02-05T04:49:18.000Z,101187
2019-02-05T04:50:19.000Z,101191
2019-02-05T04:52:19.000Z,101191
2019-02-05T04:53:19.000Z,101198
2019-02-05T04:55:18.000Z,101193
2019-02-05T04:57:03.000Z,101197
2019-02-05T04:59:18.000Z,101198
2019-02-05T05:00:19.000Z,101202
2019-02-05T05:01:49.000Z,101199
2019-02-05T05:03:03.000Z,101187
2019-02-05T05:05:19.000Z,101198
2019-02-05T05:07:19.000Z,101191
2019-02-05T05:08:19.000Z,101197
2019-02-05T05:10:03.000Z,101193
2019-02-05T05:11:04.000Z,101195
2019-02-05T05:13:04.000Z,101203
2019-02-05T05:14:19.000Z,101198
2019-02-05T05:16:19.000Z,101202
2019-02-05T05:18:18.000Z,101202
2019-02-05T05:19:19.000Z,101205
2019-02-05T05:20:19.000Z,101208
2019-02-05T05:22:19.000Z,101212
2019-02-05T05:23:19.000Z,101210
2019-02-05T05:25:18.000Z,101218
2019-02-05T05:27:03.000Z,101222
2019-02-05T05:28:04.000Z,101207
2019-02-05T05:30:19.000Z,101216
2019-02-05T05:32:19.000Z,101214
2019-02-05T05:34:03.000Z,101221
2019-02-05T05:35:19.000Z,101224
2019-02-05T05:37:03.000Z,101222
2019-02-05T05:38:19.000Z,101220
2019-02-05T05:40:19.000Z,101226
2019-02-05T05:42:19.000Z,101233
2019-02-05T05:44:18.000Z,101237
2019-02-05T05:45:19.000Z,101232
2019-02-05T05:47:04.000Z,101234
2019-02-05T05:48:04.000Z,101233
2019-02-05T05:50:19.000Z,101230
2019-02-05T05:52:04.000Z,101232
2019-02-05T05:53:19.000Z,101232
2019-02-05T05:55:19.000Z,101232
2019-02-05T05:56:19.000Z,101230
2019-02-05T05:57:19.000Z,101232
2019-02-05T05:59:03.000Z,101231
2019-02-05T06:00:19.000Z,101233
2019-02-05T06:02:19.000Z,101232
2019-02-05T06:04:03.000Z,101232
2019-02-05T06:05:19.000Z,101235
2019-02-05T06:07:19.000Z,101240
2019-02-05T06:08:49.000Z,101240
2019-02-05T06:10:04.000Z,101243
2019-02-05T06:12:19.000Z,101244
2019-02-05T06:14:19.000Z,101247
2019-02-05T06:15:19.000Z,101252
2019-02-05T06:17:19.000Z,101249
2019-02-05T06:18:48.000Z,101252
2019-02-05T06:20:19.000Z,101247
2019-02-05T06:22:19.000Z,101257
2019-02-05T06:23:19.000Z,101261
2019-02-05T06:25:04.000Z,101258
2019-02-05T06:27:19.000Z,101266
2019-02-05T06:28:19.000Z,101270
2019-02-05T06:29:19.000Z,101264
2019-02-05T06:30:19.000Z,101270
2019-02-05T06:32:03.000Z,101282
2019-02-05T06:33:04.000Z,101281
2019-02-05T06:35:19.000Z,101288
2019-02-05T06:37:19.000Z,101286
2019-02-05T06:38:19.000Z,101288
2019-02-05T06:40:04.000Z,101287
2019-02-05T06:42:19.000Z,101283
2019-02-05T06:44:19.000Z,101290
2019-02-05T06:45:19.000Z,101295
2019-02-05T06:47:19.000Z,101293
2019-02-05T06:49:03.000Z,101292
2019-02-05T06:50:19.000Z,101301
2019-02-05T06:52:19.000Z,101304
2019-02-05T06:53:49.000Z,101302
2019-02-05T06:55:04.000Z,101300
2019-02-05T06:56:19.000Z,101306
2019-02-05T06:57:19.000Z,101303
2019-02-05T06:59:18.000Z,101307
2019-02-05T07:00:48.000Z,101304
2019-02-05T07:02:18.000Z,101314
2019-02-05T07:03:47.000Z,101311
2019-02-05T07:05:18.000Z,101309
2019-02-05T07:06:18.000Z,101314
2019-02-05T07:08:03.000Z,101314
2019-02-05T07:09:18.000Z,101323
2019-02-05T07:11:03.000Z,101318
2019-02-05T07:12:18.000Z,101323
2019-02-05T07:14:03.000Z,101324
2019-02-05T07:15:18.000Z,101325
2019-02-05T07:17:18.000Z,101323
2019-02-05T07:19:18.000Z,101330
2019-02-05T07:20:18.000Z,101330
2019-02-05T07:21:18.000Z,101328
2019-02-05T07:22:48.000Z,101332
2019-02-05T07:24:18.000Z,101326
2019-02-05T07:26:18.000Z,101334
2019-02-05T07:27:18.000Z,101332
2019-02-05T07:28:48.000Z,101332
2019-02-05T07:30:18.000Z,101332
2019-02-05T07:32:18.000Z,101333
2019-02-05T07:34:03.000Z,101340
2019-02-05T07:35:03.000Z,101335
2019-02-05T07:36:03.000Z,101330
2019-02-05T07:37:48.000Z,101327
2019-02-05T07:39:03.000Z,101327
2019-02-05T07:40:18.000Z,101329
2019-02-05T07:42:18.000Z,101333
2019-02-05T07:43:18.000Z,101336
2019-02-05T07:44:48.000Z,101324
2019-02-05T07:47:18.000Z,101331
2019-02-05T07:49:03.000Z,101334
2019-02-05T07:50:03.000Z,101333
2019-02-05T07:51:18.000Z,101338
2019-02-05T07:53:18.000Z,101333
2019-02-05T07:55:03.000Z,101337
2019-02-05T07:56:18.000Z,101337
2019-02-05T07:58:18.000Z,101344
2019-02-05T08:00:03.000Z,101341
2019-02-05T08:01:03.000Z,101340
2019-02-05T08:03:18.000Z,101350
2019-02-05T08:05:19.000Z,101350
2019-02-05T08:06:49.000Z,101353
2019-02-05T08:09:18.000Z,101358
2019-02-05T08:10:19.000Z,101360
2019-02-05T08:12:04.000Z,101367
2019-02-05T08:13:49.000Z,101370
2019-02-05T08:15:04.000Z,101361
2019-02-05T08:16:19.000Z,101370
2019-02-05T08:18:19.000Z,101368
2019-02-05T08:19:19.000Z,101375
2019-02-05T08:21:03.000Z,101372
2019-02-05T08:22:04.000Z,101382
2019-02-05T08:23:48.000Z,101375
2019-02-05T08:25:19.000Z,101372
2019-02-05T08:27:19.000Z,101381
2019-02-05T08:29:04.000Z,101384
2019-02-05T08:30:19.000Z,101376
2019-02-05T08:32:19.000Z,101375
2019-02-05T08:34:19.000Z,101382
2019-02-05T08:36:19.000Z,101374
2019-02-05T08:38:04.000Z,101367
2019-02-05T08:40:19.000Z,101368
2019-02-05T08:41:19.000Z,101368
2019-02-05T08:43:19.000Z,101371
2019-02-05T08:45:03.000Z,101381
2019-02-05T08:47:19.000Z,101380
2019-02-05T08:49:19.000Z,101382
2019-02-05T08:51:04.000Z,101386
2019-02-05T08:53:03.000Z,101393
2019-02-05T08:54:19.000Z,101396
2019-02-05T08:56:03.000Z,101394
2019-02-05T08:58:19.000Z,101396
2019-02-05T09:00:19.000Z,101401
2019-02-05T09:02:03.000Z,101398
2019-02-05T09:03:04.000Z,101400
2019-02-05T09:05:19.000Z,101400
2019-02-05T09:07:03.000Z,101397
2019-02-05T09:08:19.000Z,101398
2019-02-05T09:10:18.000Z,101407
2019-02-05T09:11:49.000Z,101407
2019-02-05T09:13:03.000Z,101400
2019-02-05T09:15:18.000Z,101395
2019-02-05T09:17:18.000Z,101397
2019-02-05T09:18:48.000Z,101399
2019-02-05T09:21:03.000Z,101408
2019-02-05T09:23:18.000Z,101407
2019-02-05T09:25:03.000Z,101413
2019-02-05T09:26:03.000Z,101396
2019-02-05T09:28:03.000Z,101400
2019-02-05T09:30:03.000Z,101404
2019-02-05T09:31:18.000Z,101416
2019-02-05T09:33:18.000Z,101402
2019-02-05T09:35:03.000Z,101400
2019-02-05T09:37:18.000Z,101407
2019-02-05T09:39:03.000Z,101402
2019-02-05T09:40:18.000Z,101403
2019-02-05T09:42:18.000Z,101398
2019-02-05T09:44:03.000Z,101401
2019-02-05T09:45:18.000Z,101399
2019-02-05T09:47:03.000Z,101406
2019-02-05T09:49:18.000Z,101408
2019-02-05T09:51:18.000Z,101405
2019-02-05T09:53:03.000Z,101402
2019-02-05T09:55:03.000Z,101407
2019-02-05T09:57:18.000Z,101418
2019-02-05T09:58:18.000Z,101417
2019-02-05T10:00:18.000Z,101421
2019-02-05T10:02:18.000Z,101414
2019-02-05T10:04:18.000Z,101420
2019-02-05T10:06:18.000Z,101425
2019-02-05T10:08:03.000Z,101425
2019-02-05T10:09:18.000Z,101426
2019-02-05T10:11:03.000Z,101426
2019-02-05T10:12:03.000Z,101429
2019-02-05T10:14:03.000Z,101432
2019-02-05T10:16:03.000Z,101433
2019-02-05T10:17:48.000Z,101438
2019-02-05T10:19:18.000Z,101440
2019-02-05T10:21:18.000Z,101446
2019-02-05T10:23:03.000Z,101453
2019-02-05T10:24:18.000Z,101458
2019-02-05T10:26:18.000Z,101460
2019-02-05T10:28:03.000Z,101459
2019-02-05T10:29:18.000Z,101449
2019-02-05T10:31:03.000Z,101454
2019-02-05T10:32:18.000Z,101452
2019-02-05T10:33:48.000Z,101453
2019-02-05T10:35:18.000Z,101452
2019-02-05T10:36:18.000Z,101453
2019-02-05T10:38:03.000Z,101455
2019-02-05T10:39:03.000Z,101455
2019-02-05T10:41:18.000Z,101449
2019-02-05T10:43:03.000Z,101454
2019-02-05T10:44:03.000Z,101453
2019-02-05T10:45:03.000Z,101453
2019-02-05T10:46:18.000Z,101459
2019-02-05T10:47:48.000Z,101465
2019-02-05T10:49:03.000Z,101461
2019-02-05T10:51:03.000Z,101462
2019-02-05T10:52:18.000Z,101468
2019-02-05T10:54:03.000Z,101471
2019-02-05T10:55:48.000Z,101464
2019-02-05T10:57:18.000Z,101470
2019-02-05T10:58:18.000Z,101465
2019-02-05T11:00:03.000Z,101458
2019-02-05T11:01:49.000Z,101461
2019-02-05T11:04:03.000Z,101465
2019-02-05T11:05:18.000Z,101463
2019-02-05T11:07:18.000Z,101462
2019-02-05T11:08:18.000Z,101468
2019-02-05T11:09:18.000Z,101460
2019-02-05T11:10:18.000Z,101462
2019-02-05T11:12:18.000Z,101459
2019-02-05T11:14:18.000Z,101455
2019-02-05T11:16:18.000Z,101456
2019-02-05T11:18:18.000Z,101453
2019-02-05T11:20:03.000Z,101454
2019-02-05T11:21:04.000Z,101447
2019-02-05T11:23:19.000Z,101445
2019-02-05T11:25:19.000Z,101445
2019-02-05T11:27:03.000Z,101455
2019-02-05T11:28:19.000Z,101437
2019-02-05T11:30:19.000Z,101439
2019-02-05T11:32:04.000Z,101431
2019-02-05T11:33:04.000Z,101435
2019-02-05T11:35:03.000Z,101433
2019-02-05T11:36:19.000Z,101433
2019-02-05T11:38:19.000Z,101435
2019-02-05T11:40:03.000Z,101427
2019-02-05T11:41:19.000Z,101429
2019-02-05T11:42:19.000Z,101426
2019-02-05T11:44:19.000Z,101422
2019-02-05T11:45:49.000Z,101422
2019-02-05T11:47:04.000Z,101419
2019-02-05T11:49:19.000Z,101419
2019-02-05T11:50:19.000Z,101420
2019-02-05T11:52:03.000Z,101420
2019-02-05T11:53:04.000Z,101416
2019-02-05T11:54:19.000Z,101419
2019-02-05T11:56:03.000Z,101417
2019-02-05T11:57:04.000Z,101421
2019-02-05T11:59:04.000Z,101425
2019-02-05T12:00:19.000Z,101425
2019-02-05T12:02:19.000Z,101419
2019-02-05T12:04:04.000Z,101434
2019-02-05T12:06:04.000Z,101436
2019-02-05T12:07:49.000Z,101442
2019-02-05T12:09:04.000Z,101434
2019-02-05T12:10:04.000Z,101428
2019-02-05T12:12:19.000Z,101434
2019-02-05T12:14:04.000Z,101432
2019-02-05T12:16:19.000Z,101421
2019-02-05T12:18:04.000Z,101433
2019-02-05T12:19:19.000Z,101432
2019-02-05T12:21:19.000Z,101432
2019-02-05T12:22:49.000Z,101431
2019-02-05T12:24:04.000Z,101428
2019-02-05T12:26:03.000Z,101434
2019-02-05T12:27:19.000Z,101442
2019-02-05T12:29:19.000Z,101438
2019-02-05T12:31:18.000Z,101439
2019-02-05T12:33:19.000Z,101437
2019-02-05T12:35:19.000Z,101437
2019-02-05T12:37:03.000Z,101440
2019-02-05T12:39:04.000Z,101442
2019-02-05T12:40:18.000Z,101443
2019-02-05T12:41:19.000Z,101436
2019-02-05T12:43:19.000Z,101431
2019-02-05T12:44:19.000Z,101429
2019-02-05T12:46:19.000Z,101430
2019-02-05T12:48:03.000Z,101428
2019-02-05T12:49:19.000Z,101429
2019-02-05T12:51:03.000Z,101433
2019-02-05T12:52:04.000Z,101428
2019-02-05T12:54:04.000Z,101431
2019-02-05T12:56:19.000Z,101432
2019-02-05T12:58:19.000Z,101436
2019-02-05T12:59:49.000Z,101434
2019-02-05T13:01:00.000Z,101428
2019-02-05T13:02:03.000Z,101434
2019-02-05T13:03:19.000Z,101434
2019-02-05T13:05:19.000Z,101434
2019-02-05T13:06:19.000Z,101443
2019-02-05T13:07:49.000Z,101439
2019-02-05T13:09:18.000Z,101439
2019-02-05T13:10:19.000Z,101440
2019-02-05T13:12:19.000Z,101443
2019-02-05T13:14:19.000Z,101443
2019-02-05T13:16:19.000Z,101445
2019-02-05T13:18:19.000Z,101446
2019-02-05T13:20:18.000Z,101443
2019-02-05T13:22:19.000Z,101446
2019-02-05T13:24:03.000Z,101441
2019-02-05T13:25:04.000Z,101441
2019-02-05T13:27:03.000Z,101437
2019-02-05T13:28:19.000Z,101436
2019-02-05T13:30:19.000Z,101431
2019-02-05T13:32:19.000Z,101437
2019-02-05T13:34:03.000Z,101439
2019-02-05T13:35:04.000Z,101434
2019-02-05T13:36:19.000Z,101429
2019-02-05T13:38:19.000Z,101426
2019-02-05T13:40:19.000Z,101433
2019-02-05T13:42:03.000Z,101425
2019-02-05T13:43:19.000Z,101427
2019-02-05T13:45:03.000Z,101429
2019-02-05T13:46:04.000Z,101433
2019-02-05T13:48:19.000Z,101432
2019-02-05T13:49:19.000Z,101434
2019-02-05T13:51:19.000Z,101432
2019-02-05T13:53:19.000Z,101429
2019-02-05T13:54:19.000Z,101434
2019-02-05T13:56:04.000Z,101432
2019-02-05T13:58:19.000Z,101443
2019-02-05T14:00:19.000Z,101445
2019-02-05T14:01:49.000Z,101448
2019-02-05T14:04:04.000Z,101452
2019-02-05T14:05:19.000Z,101449
2019-02-05T14:07:05.000Z,101448
2019-02-05T14:08:19.000Z,101452
2019-02-05T14:09:49.000Z,101448
2019-02-05T14:12:19.000Z,101457
2019-02-05T14:14:19.000Z,101460
2019-02-05T14:15:19.000Z,101462
2019-02-05T14:17:04.000Z,101460
2019-02-05T14:18:49.000Z,101466
2019-02-05T14:20:19.000Z,101460
2019-02-05T14:21:19.000Z,101466
2019-02-05T14:23:19.000Z,101463
2019-02-05T14:24:19.000Z,101464
2019-02-05T14:26:19.000Z,101469
2019-02-05T14:28:03.000Z,101467
2019-02-05T14:29:19.000Z,101465
2019-02-05T14:31:19.000Z,101459
2019-02-05T14:32:49.000Z,101458
2019-02-05T14:34:04.000Z,101463
2019-02-05T14:35:18.000Z,101459
2019-02-05T14:36:18.000Z,101458
2019-02-05T14:38:18.000Z,101450
2019-02-05T14:39:48.000Z,101449
2019-02-05T14:41:18.000Z,101448
2019-02-05T14:43:03.000Z,101446
2019-02-05T14:44:18.000Z,101444
2019-02-05T14:46:18.000Z,101440
2019-02-05T14:47:48.000Z,101447
2019-02-05T14:49:18.000Z,101448
2019-02-05T14:51:03.000Z,101442
2019-02-05T14:52:03.000Z,101438
2019-02-05T14:53:18.000Z,101437
2019-02-05T14:55:18.000Z,101442
2019-02-05T14:57:03.000Z,101443
2019-02-05T14:59:18.000Z,101447
2019-02-05T15:01:18.000Z,101450
2019-02-05T15:02:18.000Z,101450
2019-02-05T15:03:18.000Z,101448
2019-02-05T15:05:03.000Z,101450
2019-02-05T15:07:18.000Z,101445
2019-02-05T15:09:18.000Z,101444
2019-02-05T15:10:48.000Z,101447
2019-02-05T15:12:18.000Z,101446
2019-02-05T15:14:03.000Z,101450
2019-02-05T15:15:18.000Z,101455
2019-02-05T15:17:18.000Z,101449
2019-02-05T15:18:48.000Z,101449
2019-02-05T15:20:18.000Z,101451
2019-02-05T15:22:03.000Z,101451
2019-02-05T15:23:03.000Z,101445
2019-02-05T15:24:18.000Z,101443
2019-02-05T15:26:18.000Z,101443
2019-02-05T15:28:18.000Z,101448
2019-02-05T15:30:18.000Z,101450
2019-02-05T15:31:48.000Z,101447
2019-02-05T15:33:18.000Z,101443
2019-02-05T15:34:18.000Z,101446
2019-02-05T15:36:03.000Z,101448
2019-02-05T15:37:18.000Z,101445
2019-02-05T15:39:18.000Z,101444
2019-02-05T15:41:19.000Z,101446
2019-02-05T15:43:19.000Z,101443
2019-02-05T15:45:03.000Z,101442
2019-02-05T15:46:19.000Z,101443
2019-02-05T15:48:18.000Z,101440
2019-02-05T15:49:49.000Z,101445
2019-02-05T15:51:18.000Z,101439
2019-02-05T15:53:19.000Z,101436
2019-02-05T15:54:19.000Z,101431
2019-02-05T15:56:19.000Z,101437
2019-02-05T15:57:49.000Z,101431
2019-02-05T15:59:18.000Z,101437
2019-02-05T16:01:03.000Z,101436
2019-02-05T16:02:04.000Z,101433
2019-02-05T16:04:03.000Z,101438
2019-02-05T16:05:19.000Z,101442
2019-02-05T16:06:19.000Z,101440
2019-02-05T16:08:19.000Z,101455
2019-02-05T16:10:19.000Z,101447
2019-02-05T16:11:19.000Z,101451
2019-02-05T16:12:49.000Z,101445
2019-02-05T16:14:19.000Z,101449
2019-02-05T16:16:03.000Z,101442
2019-02-05T16:17:19.000Z,101445
2019-02-05T16:19:19.000Z,101445
2019-02-05T16:20:49.000Z,101441
2019-02-05T16:22:19.000Z,101444
2019-02-05T16:24:19.000Z,101447
2019-02-05T16:26:19.000Z,101452
2019-02-05T16:27:19.000Z,101452
2019-02-05T16:29:04.000Z,101453
2019-02-05T16:31:03.000Z,101451
2019-02-05T16:32:18.000Z,101445
2019-02-05T16:34:19.000Z,101443
2019-02-05T16:35:49.000Z,101445
2019-02-05T16:37:18.000Z,101454
2019-02-05T16:39:03.000Z,101449
2019-02-05T16:40:19.000Z,101450
2019-02-05T16:42:19.000Z,101449
2019-02-05T16:43:19.000Z,101451
2019-02-05T16:45:18.000Z,101453
2019-02-05T16:46:18.000Z,101448
2019-02-05T16:48:18.000Z,101452
2019-02-05T16:49:18.000Z,101450
2019-02-05T16:51:03.000Z,101445
2019-02-05T16:52:18.000Z,101447
2019-02-05T16:54:18.000Z,101446
2019-02-05T16:56:03.000Z,101446
2019-02-05T16:57:18.000Z,101445
2019-02-05T16:58:18.000Z,101453
2019-02-05T17:00:18.000Z,101450
2019-02-05T17:02:19.000Z,101454
2019-02-05T17:04:18.000Z,101451
2019-02-05T17:06:18.000Z,101450
2019-02-05T17:08:18.000Z,101449
2019-02-05T17:09:18.000Z,101457
2019-02-05T17:11:18.000Z,101456
2019-02-05T17:12:18.000Z,101459
2019-02-05T17:14:19.000Z,101455
2019-02-05T17:16:03.000Z,101457
2019-02-05T17:17:18.000Z,101452
2019-02-05T17:19:03.000Z,101448
2019-02-05T17:20:18.000Z,101454
2019-02-05T17:21:49.000Z,101457
2019-02-05T17:23:18.000Z,101456
2019-02-05T17:25:03.000Z,101446
2019-02-05T17:26:18.000Z,101445
2019-02-05T17:28:19.000Z,101443
2019-02-05T17:29:48.000Z,101445
2019-02-05T17:31:18.000Z,101444
2019-02-05T17:33:03.000Z,101446
2019-02-05T17:34:18.000Z,101444
2019-02-05T17:35:18.000Z,101445
2019-02-05T17:37:18.000Z,101446
2019-02-05T17:39:03.000Z,101443
2019-02-05T17:41:18.000Z,101447
2019-02-05T17:43:18.000Z,101445
2019-02-05T17:44:49.000Z,101436
2019-02-05T17:46:04.000Z,101433
2019-02-05T17:48:18.000Z,101433
2019-02-05T17:49:19.000Z,101432
2019-02-05T17:51:19.000Z,101439
2019-02-05T17:52:49.000Z,101428
2019-02-05T17:54:18.000Z,101434
2019-02-05T17:56:03.000Z,101434
2019-02-05T17:57:19.000Z,101439
2019-02-05T17:59:19.000Z,101433
2019-02-05T18:00:19.000Z,101433
2019-02-05T18:02:03.000Z,101430
2019-02-05T18:04:18.000Z,101432
2019-02-05T18:06:18.000Z,101441
2019-02-05T18:07:19.000Z,101436
2019-02-05T18:09:18.000Z,101438
2019-02-05T18:11:03.000Z,101442
2019-02-05T18:12:18.000Z,101444
2019-02-05T18:14:18.000Z,101443
2019-02-05T18:15:48.000Z,101445
2019-02-05T18:17:18.000Z,101441
2019-02-05T18:19:03.000Z,101443
2019-02-05T18:20:19.000Z,101442
2019-02-05T18:21:19.000Z,101443
2019-02-05T18:23:19.000Z,101441
2019-02-05T18:25:18.000Z,101442
2019-02-05T18:26:19.000Z,101441
2019-02-05T18:28:18.000Z,101433
2019-02-05T18:30:18.000Z,101440
2019-02-05T18:31:19.000Z,101441
2019-02-05T18:33:04.000Z,101433
2019-02-05T18:35:19.000Z,101439
2019-02-05T18:37:18.000Z,101437
2019-02-05T18:38:19.000Z,101445
2019-02-05T18:40:19.000Z,101447
2019-02-05T18:42:19.000Z,101441
2019-02-05T18:43:19.000Z,101447
2019-02-05T18:45:18.000Z,101446
2019-02-05T18:46:19.000Z,101447
2019-02-05T18:48:18.000Z,101447
2019-02-05T18:50:03.000Z,101441
2019-02-05T18:51:03.000Z,101437
2019-02-05T18:52:19.000Z,101436
2019-02-05T18:53:19.000Z,101433
2019-02-05T18:54:49.000Z,101438
2019-02-05T18:56:04.000Z,101431
2019-02-05T18:57:19.000Z,101428
2019-02-05T18:59:04.000Z,101432
2019-02-05T19:00:19.000Z,101427
2019-02-05T19:01:49.000Z,101427
2019-02-05T19:03:04.000Z,101422
2019-02-05T19:04:04.000Z,101423
2019-02-05T19:06:19.000Z,101418
2019-02-05T19:08:04.000Z,101420
2019-02-05T19:09:19.000Z,101418
2019-02-05T19:11:19.000Z,101419
2019-02-05T19:13:04.000Z,101410
2019-02-05T19:14:19.000Z,101406
2019-02-05T19:16:19.000Z,101403
2019-02-05T19:17:19.000Z,101400
2019-02-05T19:19:04.000Z,101409
2019-02-05T19:20:19.000Z,101402
2019-02-05T19:21:19.000Z,101398
2019-02-05T19:23:19.000Z,101399
2019-02-05T19:24:19.000Z,101404
2019-02-05T19:26:19.000Z,101400
2019-02-05T19:28:04.000Z,101399
2019-02-05T19:29:19.000Z,101397
2019-02-05T19:31:04.000Z,101399
2019-02-05T19:32:19.000Z,101398
2019-02-05T19:34:19.000Z,101404
2019-02-05T19:36:04.000Z,101399
2019-02-05T19:37:19.000Z,101400
2019-02-05T19:39:04.000Z,101393
2019-02-05T19:40:19.000Z,101393
2019-02-05T19:42:04.000Z,101390
2019-02-05T19:43:19.000Z,101388
2019-02-05T19:45:19.000Z,101389
2019-02-05T19:46:49.000Z,101384
2019-02-05T19:48:04.000Z,101381
2019-02-05T19:49:04.000Z,101380
2019-02-05T19:51:19.000Z,101388
2019-02-05T19:53:04.000Z,101382
2019-02-05T19:54:04.000Z,101387
2019-02-05T19:55:19.000Z,101382
2019-02-05T19:56:49.000Z,101383
2019-02-05T19:58:19.000Z,101385
2019-02-05T19:59:19.000Z,101386
2019-02-05T20:00:49.000Z,101391
2019-02-05T20:02:19.000Z,101391
2019-02-05T20:04:04.000Z,101390
2019-02-05T20:05:19.000Z,101388